Time;durP1;ratioP1;P1;durP2;ratioP2;P2;SDS_P1;SDS_P2;PMS_P1;PMS_P2;Temp;Humidity;BMP_temperature;BMP_pressure;BME280_temperature;BME280_humidity;BME280_pressure;Samples;Min_cycle;Max_cycle;Signal;HPM_P1;HPM_P2
2021/11/24 00:00:37;;;;;;;48.87;27.45;;;;;;;2.10;91.92;142785.08;1817595;77;22195;-54
2021/11/24 00:03:14;;;;;;;56.25;29.27;;;;;;;2.07;91.72;142777.63;1826448;77;22213;-54
2021/11/24 00:06:08;;;;;;;63.50;31.52;;;;;;;2.05;91.80;142773.86;1805400;77;22303;-53
2021/11/24 00:09:02;;;;;;;54.65;30.05;;;;;;;2.07;91.89;142778.86;1819854;77;22211;-57
2021/11/24 00:11:39;;;;;;;51.05;29.05;;;;;;;2.12;92.04;142790.06;1820120;77;22308;-54
2021/11/24 00:14:16;;;;;;;52.95;28.50;;;;;;;2.17;91.95;142803.77;1819972;77;22202;-53
2021/11/24 00:16:51;;;;;;;47.03;27.13;;;;;;;2.16;91.80;142800.00;1833096;77;22582;-53
2021/11/24 00:19:27;;;;;;;52.40;29.32;;;;;;;2.15;91.89;142797.53;1824104;77;22215;-53
2021/11/24 00:22:03;;;;;;;49.10;30.65;;;;;;;2.10;91.85;142785.08;1801807;77;28625;-54
2021/11/24 00:24:38;;;;;;;51.30;28.67;;;;;;;2.14;92.11;142796.30;1818226;77;22211;-55
2021/11/24 00:27:15;;;;;;;43.00;24.95;;;;;;;2.15;92.06;142797.53;1814154;77;22702;-55
2021/11/24 00:29:50;;;;;;;45.00;25.52;;;;;;;2.17;92.25;142803.77;1831965;77;22621;-53
2021/11/24 00:32:25;;;;;;;47.23;27.45;;;;;;;2.20;92.15;142808.75;1815166;77;22254;-54
2021/11/24 00:35:01;;;;;;;43.35;25.27;;;;;;;2.23;92.26;142816.22;1828064;77;22639;-53
2021/11/24 00:37:55;;;;;;;44.13;26.10;;;;;;;2.21;92.19;142811.22;1817632;77;22176;-54
2021/11/24 00:40:30;;;;;;;40.38;23.40;;;;;;;2.16;92.26;142801.28;1816361;77;22155;-54
2021/11/24 00:43:26;;;;;;;39.00;24.15;;;;;;;2.09;92.20;142782.61;1818230;77;22144;-53
2021/11/24 00:46:07;;;;;;;35.20;23.18;;;;;;;2.04;92.46;142770.16;1826382;77;22597;-54
2021/11/24 00:48:42;;;;;;;38.60;22.13;;;;;;;1.99;92.75;142757.70;1818334;77;22563;-54
2021/11/24 00:51:36;;;;;;;42.60;23.20;;;;;;;1.98;92.90;142755.19;1818708;77;22172;-53
2021/11/24 00:54:12;;;;;;;35.90;23.02;;;;;;;1.82;92.88;142717.84;1818001;78;28405;-54
2021/11/24 00:56:47;;;;;;;36.35;22.58;;;;;;;1.76;93.27;142702.92;1824510;78;22559;-54
2021/11/24 00:59:42;;;;;;;40.15;24.87;;;;;;;1.61;93.58;142665.58;1817228;77;22574;-54
2021/11/24 01:02:17;;;;;;;43.68;25.00;;;;;;;1.57;94.20;142655.59;1818674;77;22141;-55
2021/11/24 01:04:52;;;;;;;37.23;23.20;;;;;;;1.57;94.47;142656.83;1820596;77;22177;-53
2021/11/24 01:07:48;;;;;;;34.90;22.77;;;;;;;1.58;94.72;142658.06;1819299;77;38760;-55
2021/11/24 01:10:23;;;;;;;40.30;21.82;;;;;;;1.57;94.82;142655.59;1853551;77;22151;-54
2021/11/24 01:13:00;;;;;;;38.35;22.80;;;;;;;1.57;94.96;142655.59;1853573;77;22689;-55
2021/11/24 01:15:41;;;;;;;38.78;22.80;;;;;;;1.62;95.29;142668.05;1834236;77;22136;-54
2021/11/24 01:18:17;;;;;;;36.35;21.57;;;;;;;1.54;95.17;142649.38;1843417;77;22594;-55
2021/11/24 01:21:12;;;;;;;34.50;22.87;;;;;;;1.49;95.38;142638.16;1837683;77;28016;-55
2021/11/24 01:23:49;;;;;;;39.53;22.62;;;;;;;1.55;95.50;142650.61;1834782;77;22179;-55
2021/11/24 01:26:49;;;;;;;37.05;22.13;;;;;;;1.55;95.59;142650.61;1843206;77;22188;-54
2021/11/24 01:29:24;;;;;;;37.35;21.25;;;;;;;1.50;95.65;142640.69;1835025;77;22129;-54
2021/11/24 01:32:03;;;;;;;43.58;24.25;;;;;;;1.49;95.76;142638.16;1843544;78;22291;-56
2021/11/24 01:35:06;;;;;;;41.18;23.92;;;;;;;1.53;95.88;142646.91;1853498;77;22672;-54
2021/11/24 01:37:42;;;;;;;35.00;20.85;;;;;;;1.54;95.93;142648.14;1834947;77;22156;-55
2021/11/24 01:40:38;;;;;;;38.78;21.27;;;;;;;1.67;96.11;142681.72;1853569;77;22578;-54
2021/11/24 01:43:32;;;;;;;36.80;21.42;;;;;;;1.72;95.82;142692.94;1835048;77;22594;-55
2021/11/24 01:46:07;;;;;;;35.25;20.52;;;;;;;1.72;95.71;142692.94;1835008;77;22136;-54
2021/11/24 01:48:42;;;;;;;36.25;19.73;;;;;;;1.70;95.58;142689.19;1853619;77;22135;-54
2021/11/24 01:51:38;;;;;;;37.33;22.65;;;;;;;1.71;95.64;142690.47;1837763;77;28051;-56
2021/11/24 01:54:14;;;;;;;39.63;20.97;;;;;;;1.74;95.54;142699.16;1853615;77;22144;-54
2021/11/24 01:56:50;;;;;;;33.40;20.57;;;;;;;1.69;95.42;142685.47;1834976;77;22128;-55
2021/11/24 01:59:26;;;;;;;36.45;20.25;;;;;;;1.69;95.64;142685.47;1853528;77;22135;-53
2021/11/24 02:02:02;;;;;;;35.78;18.32;;;;;;;1.73;95.70;142695.41;1853675;77;20095;-54
2021/11/24 02:04:37;;;;;;;35.08;22.50;;;;;;;1.75;95.66;142700.41;1819512;77;28092;-54
2021/11/24 02:07:12;;;;;;;36.23;20.45;;;;;;;1.78;95.57;142706.63;1835039;77;22148;-54
2021/11/24 02:09:47;;;;;;;37.48;21.12;;;;;;;1.80;95.79;142712.84;1853619;77;22131;-56
2021/11/24 02:12:24;;;;;;;34.00;19.50;;;;;;;1.83;95.72;142720.36;1834748;77;22156;-56
2021/11/24 02:15:01;;;;;;;35.52;20.23;;;;;;;1.84;95.53;142722.83;1834889;77;22589;-55
2021/11/24 02:17:40;;;;;;;32.65;19.05;;;;;;;1.88;95.63;142732.81;1853555;77;22625;-56
2021/11/24 02:20:41;;;;;;;34.58;20.32;;;;;;;1.93;95.67;142745.25;1853567;77;22135;-57
2021/11/24 02:23:27;;;;;;;36.45;19.80;;;;;;;2.02;95.59;142766.41;1853626;77;22152;-55
2021/11/24 02:26:23;;;;;;;37.00;20.23;;;;;;;2.07;95.48;142777.63;1835196;77;22612;-55
2021/11/24 02:29:18;;;;;;;32.85;19.65;;;;;;;2.13;95.55;142792.53;1834988;77;22589;-56
2021/11/24 02:32:16;;;;;;;36.63;21.30;;;;;;;2.19;95.44;142807.52;1834870;77;22147;-56
2021/11/24 02:34:57;;;;;;;33.55;20.62;;;;;;;2.22;95.24;142814.97;1834190;77;22160;-55
2021/11/24 02:37:33;;;;;;;31.55;19.05;;;;;;;2.24;95.16;142818.69;1853503;77;22137;-56
2021/11/24 02:40:15;;;;;;;32.30;19.10;;;;;;;2.28;95.05;142829.91;1853604;77;22191;-56
2021/11/24 02:43:10;;;;;;;31.55;19.42;;;;;;;2.38;94.95;142853.58;1879412;75;22159;-55
2021/11/24 02:46:05;;;;;;;32.25;18.55;;;;;;;2.37;94.37;142851.11;1835003;77;22128;-55
2021/11/24 02:48:40;;;;;;;32.67;20.40;;;;;;;2.34;94.23;142843.59;1837887;77;28412;-55
2021/11/24 02:51:15;;;;;;;30.10;19.05;;;;;;;2.36;94.05;142849.81;1853621;77;22123;-55
2021/11/24 02:53:50;;;;;;;31.65;18.98;;;;;;;2.37;93.99;142852.34;1835163;77;22160;-55
2021/11/24 02:56:25;;;;;;;30.20;19.50;;;;;;;2.38;93.94;142854.81;1834960;77;22160;-56
2021/11/24 02:59:00;;;;;;;31.07;18.62;;;;;;;2.41;93.79;142859.81;1835039;77;22160;-55
2021/11/24 03:01:55;;;;;;;31.20;18.57;;;;;;;2.41;93.67;142859.81;1853500;77;22570;-57
2021/11/24 03:04:32;;;;;;;26.70;17.15;;;;;;;2.38;93.47;142853.58;1834883;77;22132;-56
2021/11/24 03:07:26;;;;;;;29.02;16.55;;;;;;;2.39;93.46;142856.05;1834983;77;22148;-54
2021/11/24 03:10:01;;;;;;;26.55;17.17;;;;;;;2.39;93.39;142857.33;1834973;77;22557;-54
2021/11/24 03:12:57;;;;;;;29.10;18.23;;;;;;;2.41;93.31;142861.05;1834944;77;22555;-53
2021/11/24 03:15:51;;;;;;;28.73;17.05;;;;;;;2.44;93.35;142868.50;1835051;77;22129;-55
2021/11/24 03:18:26;;;;;;;27.80;16.10;;;;;;;2.44;93.12;142867.27;1853758;77;22131;-54
2021/11/24 03:21:22;;;;;;;26.77;16.17;;;;;;;2.38;92.94;142853.58;1853560;77;22216;-54
2021/11/24 03:24:05;;;;;;;24.12;15.30;;;;;;;2.34;92.96;142844.87;1853909;77;22226;-55
2021/11/24 03:26:58;;;;;;;26.17;15.95;;;;;;;2.33;93.00;142842.36;1853516;77;22127;-54
2021/11/24 03:29:33;;;;;;;22.60;15.20;;;;;;;2.34;93.01;142844.87;1835013;77;22602;-54
2021/11/24 03:32:09;;;;;;;25.50;15.35;;;;;;;2.38;92.92;142853.58;1853623;77;22133;-55
2021/11/24 03:34:46;;;;;;;29.42;16.25;;;;;;;2.39;92.72;142857.33;1834761;77;22155;-56
2021/11/24 03:37:22;;;;;;;26.75;16.75;;;;;;;2.37;92.64;142852.34;1853514;77;22566;-55
2021/11/24 03:39:58;;;;;;;27.40;17.50;;;;;;;2.34;92.53;142844.87;1835015;77;22133;-57
2021/11/24 03:42:55;;;;;;;26.30;16.42;;;;;;;2.30;92.59;142834.89;1834992;77;22172;-55
2021/11/24 03:45:34;;;;;;;25.30;16.50;;;;;;;2.25;92.63;142822.44;1853564;77;22131;-59
2021/11/24 03:48:29;;;;;;;26.35;16.82;;;;;;;2.28;92.73;142828.67;1853613;77;22217;-55
2021/11/24 03:51:24;;;;;;;27.52;17.23;;;;;;;2.29;92.71;142831.14;1834914;77;22567;-54
2021/11/24 03:53:59;;;;;;;26.45;16.90;;;;;;;2.29;92.69;142832.42;1853570;77;22171;-56
2021/11/24 03:56:34;;;;;;;30.60;18.12;;;;;;;2.30;92.61;142834.89;1835036;77;22144;-54
2021/11/24 03:59:09;;;;;;;25.00;16.23;;;;;;;2.26;92.61;142824.91;1835104;77;22563;-55
2021/11/24 04:02:03;;;;;;;27.07;16.87;;;;;;;2.24;92.58;142819.97;1853502;77;22124;-53
2021/11/24 04:04:38;;;;;;;26.82;16.52;;;;;;;2.23;92.69;142816.22;1853637;77;22139;-53
2021/11/24 04:07:13;;;;;;;27.27;17.90;;;;;;;2.23;92.78;142817.45;1853629;77;22136;-53
2021/11/24 04:09:49;;;;;;;26.60;16.73;;;;;;;2.24;92.86;142819.97;1834988;77;22144;-53
2021/11/24 04:12:24;;;;;;;28.95;18.82;;;;;;;2.29;92.89;142831.14;1819417;77;27995;-55
2021/11/24 04:15:20;;;;;;;29.52;18.87;;;;;;;2.39;92.81;142857.33;1835023;77;22551;-53
2021/11/24 04:18:01;;;;;;;25.57;16.30;;;;;;;2.38;92.82;142853.58;1853566;77;22616;-55
2021/11/24 04:20:56;;;;;;;26.02;16.82;;;;;;;2.38;92.75;142854.81;1834974;77;22140;-54
2021/11/24 04:23:51;;;;;;;27.87;17.40;;;;;;;2.43;92.76;142864.80;1834982;77;22132;-54
2021/11/24 04:26:26;;;;;;;27.82;16.95;;;;;;;2.39;92.64;142857.33;1853666;77;22546;-53
2021/11/24 04:29:01;;;;;;;28.17;17.37;;;;;;;2.36;92.64;142849.81;1834974;77;22163;-54
2021/11/24 04:31:56;;;;;;;27.10;16.10;;;;;;;2.34;92.74;142843.59;1834765;77;22159;-54
2021/11/24 04:34:32;;;;;;;28.40;17.45;;;;;;;2.32;92.81;142838.66;1835074;77;22160;-53
2021/11/24 04:37:07;;;;;;;29.15;18.42;;;;;;;2.32;92.81;142839.88;1835060;77;22136;-54
2021/11/24 04:39:42;;;;;;;28.57;16.90;;;;;;;2.32;92.78;142839.88;1834952;77;22206;-54
2021/11/24 04:42:45;;;;;;;30.45;18.48;;;;;;;2.32;92.87;142839.88;1834079;77;22160;-53
2021/11/24 04:45:20;;;;;;;29.70;17.60;;;;;;;2.32;92.88;142838.66;1834972;77;22136;-54
2021/11/24 04:47:55;;;;;;;28.50;16.97;;;;;;;2.30;92.81;142834.89;1835021;77;22207;-56
2021/11/24 04:50:30;;;;;;;32.10;18.60;;;;;;;2.30;92.93;142833.66;1853612;77;22599;-55
2021/11/24 04:53:31;;;;;;;32.70;18.70;;;;;;;2.29;92.89;142832.42;1834204;77;22188;-53
2021/11/24 04:56:25;;;;;;;28.00;17.57;;;;;;;2.31;93.04;142837.36;1835012;77;22132;-54
2021/11/24 04:59:19;;;;;;;30.40;17.95;;;;;;;2.30;92.88;142833.66;1818971;77;22151;-54
2021/11/24 05:02:00;;;;;;;25.97;17.07;;;;;;;2.27;93.00;142827.44;1814662;77;22192;-53
2021/11/24 05:04:54;;;;;;;26.23;16.02;;;;;;;2.25;93.04;142822.44;1835014;77;22555;-52
2021/11/24 05:07:57;;;;;;;29.50;17.85;;;;;;;2.20;93.11;142808.75;1853661;77;22663;-54
2021/11/24 05:10:38;;;;;;;30.02;17.52;;;;;;;2.17;93.29;142802.53;1834147;77;22579;-54
2021/11/24 05:13:41;;;;;;;27.00;17.42;;;;;;;2.18;93.47;142806.23;1834335;77;22172;-54
2021/11/24 05:16:37;;;;;;;28.73;16.67;;;;;;;2.21;93.47;142812.45;1834776;77;22598;-54
2021/11/24 05:19:18;;;;;;;32.65;17.32;;;;;;;2.18;93.32;142806.23;1834982;77;22559;-54
2021/11/24 05:21:51;;;;;;;29.05;19.70;;;;;;;2.12;93.42;142791.31;1819577;77;27996;-55
2021/11/24 05:24:51;;;;;;;29.65;18.87;;;;;;;2.24;93.65;142818.69;1834067;77;22208;-54
2021/11/24 05:27:32;;;;;;;31.30;19.45;;;;;;;2.24;93.71;142819.97;1853016;77;22614;-56
2021/11/24 05:30:09;;;;;;;34.20;20.15;;;;;;;2.31;93.69;142837.36;1806864;77;22257;-55
2021/11/24 05:32:45;;;;;;;29.70;18.17;;;;;;;2.33;93.63;142841.13;1834771;77;22161;-55
2021/11/24 05:35:46;;;;;;;33.38;18.92;;;;;;;2.31;93.53;142837.36;1840647;77;22251;-55
2021/11/24 05:38:40;;;;;;;30.50;18.10;;;;;;;2.29;93.60;142832.42;1839366;77;22140;-55
2021/11/24 05:41:21;;;;;;;30.23;18.25;;;;;;;2.30;93.74;142833.66;1834053;77;22160;-56
2021/11/24 05:44:04;;;;;;;32.98;17.73;;;;;;;2.33;93.87;142842.36;1831017;77;22539;-54
2021/11/24 05:47:02;;;;;;;31.25;18.73;;;;;;;2.36;93.85;142849.81;1830878;77;22167;-56
2021/11/24 05:49:38;;;;;;;31.27;17.57;;;;;;;2.39;93.85;142856.05;1843124;77;22538;-54
2021/11/24 05:52:33;;;;;;;28.25;16.30;;;;;;;2.42;93.84;142862.28;1853275;77;22218;-55
2021/11/24 05:55:09;;;;;;;27.27;16.57;;;;;;;2.43;93.78;142864.80;1823421;77;22598;-56
2021/11/24 05:57:44;;;;;;;29.57;16.35;;;;;;;2.43;93.79;142866.03;1821773;77;22202;-56
2021/11/24 06:00:39;;;;;;;26.45;16.17;;;;;;;2.46;93.76;142873.50;1825569;77;22578;-55
2021/11/24 06:03:14;;;;;;;28.57;18.32;;;;;;;2.48;93.71;142877.25;1803491;77;28125;-56
2021/11/24 06:05:50;;;;;;;30.08;17.60;;;;;;;2.55;93.61;142894.70;1820987;77;22605;-58
2021/11/24 06:08:25;;;;;;;25.88;17.20;;;;;;;2.54;93.50;142892.19;1803579;77;28076;-55
2021/11/24 06:11:26;;;;;;;29.70;18.02;;;;;;;2.62;93.55;142912.16;1817150;77;22192;-54
2021/11/24 06:14:01;;;;;;;31.82;18.60;;;;;;;2.61;93.50;142910.88;1827465;77;22140;-55
2021/11/24 06:16:36;;;;;;;31.15;19.37;;;;;;;2.64;93.51;142917.09;1834917;77;22164;-54
2021/11/24 06:19:12;;;;;;;32.65;17.82;;;;;;;2.62;93.33;142912.16;1823914;77;20119;-54
2021/11/24 06:21:53;;;;;;;34.63;19.62;;;;;;;2.58;93.35;142902.17;1833927;77;22232;-55
2021/11/24 06:24:29;;;;;;;29.15;19.75;;;;;;;2.57;93.50;142899.66;1819239;77;28027;-54
2021/11/24 06:27:05;;;;;;;26.33;18.07;;;;;;;2.67;93.55;142923.33;1837705;77;28003;-55
2021/11/24 06:29:40;;;;;;;27.75;17.23;;;;;;;2.76;93.35;142947.00;1834889;77;22156;-56
2021/11/24 06:32:15;;;;;;;29.75;19.67;;;;;;;2.75;93.28;142944.53;1819168;77;38860;-55
2021/11/24 06:35:10;;;;;;;33.40;18.50;;;;;;;2.85;93.19;142966.94;1853391;77;22136;-55
2021/11/24 06:37:45;;;;;;;30.23;18.12;;;;;;;2.83;93.11;142964.47;1842477;77;22132;-55
2021/11/24 06:40:41;;;;;;;37.50;19.60;;;;;;;2.86;93.08;142969.45;1827883;77;22199;-56
2021/11/24 06:43:17;;;;;;;35.23;19.57;;;;;;;2.86;92.95;142969.45;1853547;77;22187;-54
2021/11/24 06:45:53;;;;;;;32.13;21.27;;;;;;;2.85;92.86;142968.22;1837828;77;28066;-57
2021/11/24 06:48:29;;;;;;;26.45;18.48;;;;;;;2.94;92.98;142990.63;1821501;77;28426;-55
2021/11/24 06:51:08;;;;;;;26.60;17.62;;;;;;;3.08;92.89;143024.30;1804845;77;22607;-55
2021/11/24 06:54:04;;;;;;;29.37;18.92;;;;;;;3.08;92.52;143023.02;1834147;77;22171;-55
2021/11/24 06:56:39;;;;;;;32.60;19.20;;;;;;;3.06;92.48;143019.30;1852952;77;22223;-54
2021/11/24 06:59:14;;;;;;;29.75;18.15;;;;;;;3.08;92.47;143024.30;1852944;77;22144;-56
2021/11/24 07:01:57;;;;;;;29.52;17.82;;;;;;;3.09;92.36;143026.78;1853382;77;22191;-56
2021/11/24 07:04:57;;;;;;;29.92;18.75;;;;;;;3.08;92.27;143023.02;1834096;77;22152;-56
2021/11/24 07:07:51;;;;;;;27.32;18.23;;;;;;;3.02;92.25;143009.31;1834933;77;22164;-56
2021/11/24 07:10:46;;;;;;;30.90;18.25;;;;;;;3.02;92.45;143009.31;1835004;77;22157;-54
2021/11/24 07:13:21;;;;;;;27.25;16.55;;;;;;;3.12;92.63;143033.00;1835021;77;22144;-55
2021/11/24 07:15:59;;;;;;;27.50;17.42;;;;;;;3.22;92.32;143057.94;1853542;77;22123;-55
2021/11/24 07:18:34;;;;;;;29.02;19.30;;;;;;;3.29;92.27;143074.16;1819330;77;28018;-55
2021/11/24 07:21:30;;;;;;;29.15;18.27;;;;;;;3.45;92.13;143114.03;1834683;77;22188;-60
2021/11/24 07:24:06;;;;;;;29.90;18.82;;;;;;;3.49;91.80;143124.02;1819213;77;28036;-55
2021/11/24 07:27:01;;;;;;;31.95;19.70;;;;;;;3.67;91.70;143167.66;1835085;77;22188;-55
2021/11/24 07:29:36;;;;;;;30.00;18.55;;;;;;;3.78;91.46;143193.84;1834969;77;22616;-54
2021/11/24 07:32:50;;;;;;;29.23;18.45;;;;;;;3.90;90.84;143225.02;1839821;77;22638;-57
2021/11/24 07:35:45;;;;;;;28.17;17.17;;;;;;;4.02;90.75;143253.72;1853489;77;22589;-56
2021/11/24 07:38:20;;;;;;;29.32;20.35;;;;;;;4.29;90.29;143319.81;1819340;77;27987;-56
2021/11/24 07:41:14;;;;;;;29.32;18.85;;;;;;;4.85;89.88;143454.61;1834934;77;22239;-55
2021/11/24 07:43:51;;;;;;;25.05;16.77;;;;;;;5.53;88.82;143621.92;1834797;77;22177;-55
2021/11/24 07:46:45;;;;;;;27.98;16.90;;;;;;;6.56;86.05;143873.11;1834921;77;22259;-55
2021/11/24 07:49:22;;;;;;;27.25;17.02;;;;;;;7.85;83.26;144187.08;1834811;77;22587;-55
2021/11/24 07:51:57;;;;;;;25.43;16.77;;;;;;;8.87;79.43;144438.75;1853534;77;22128;-56
2021/11/24 07:54:33;;;;;;;23.02;16.60;;;;;;;9.53;76.13;144600.37;1837888;77;27989;-57
2021/11/24 07:57:08;;;;;;;25.62;15.10;;;;;;;9.75;72.31;144654.28;1834992;77;22160;-56
2021/11/24 08:00:05;;;;;;;23.00;15.72;;;;;;;9.55;70.08;144604.16;1834925;77;22563;-57
2021/11/24 08:02:41;;;;;;;22.67;14.20;;;;;;;9.44;69.27;144576.56;1835015;77;22125;-55
2021/11/24 08:05:35;;;;;;;23.22;14.53;;;;;;;9.23;68.74;144525.19;1834911;77;22555;-56
2021/11/24 08:08:11;;;;;;;18.62;13.53;;;;;;;8.86;68.81;144435.03;1815887;79;22163;-56
2021/11/24 08:10:46;;;;;;;20.00;14.73;;;;;;;8.52;68.79;144351.09;1837789;77;28043;-55
2021/11/24 08:13:42;;;;;;;20.68;12.98;;;;;;;8.02;69.42;144230.87;1834789;77;20206;-56
2021/11/24 08:16:18;;;;;;;19.92;12.73;;;;;;;7.58;70.31;144123.28;1834839;77;22128;-55
2021/11/24 08:18:53;;;;;;;18.95;12.78;;;;;;;7.27;71.44;144045.69;1834931;77;22234;-55
2021/11/24 08:21:29;;;;;;;17.90;12.65;;;;;;;6.98;72.00;143974.42;1835009;77;22132;-55
2021/11/24 08:24:23;;;;;;;18.42;12.70;;;;;;;6.63;73.17;143889.37;1834806;77;22164;-55
2021/11/24 08:26:58;;;;;;;18.95;14.23;;;;;;;6.40;74.11;143834.37;1819428;77;28022;-56
2021/11/24 08:29:33;;;;;;;21.70;13.50;;;;;;;6.35;75.00;143820.64;1834965;77;22215;-55
2021/11/24 08:32:27;;;;;;;20.88;13.15;;;;;;;6.34;75.41;143819.39;1835005;77;22210;-55
2021/11/24 08:35:05;;;;;;;20.37;13.65;;;;;;;6.22;75.75;143789.39;1848273;77;22181;-56
2021/11/24 08:38:00;;;;;;;23.70;15.10;;;;;;;6.11;76.38;143763.16;1834958;77;22164;-56
2021/11/24 08:40:55;;;;;;;29.42;18.73;;;;;;;6.03;76.87;143743.13;1853580;77;22129;-56
2021/11/24 08:43:30;;;;;;;26.23;17.40;;;;;;;6.01;77.30;143738.17;1835206;77;22124;-55
2021/11/24 08:46:25;;;;;;;23.73;16.15;;;;;;;6.01;77.52;143738.17;1834913;77;22157;-55
2021/11/24 08:49:00;;;;;;;26.35;16.82;;;;;;;6.04;77.76;143745.66;1853602;77;22550;-55
2021/11/24 08:51:54;;;;;;;25.23;15.75;;;;;;;6.06;78.00;143750.66;1834943;77;22136;-55
2021/11/24 08:54:31;;;;;;;26.52;16.23;;;;;;;6.13;78.08;143766.87;1815932;79;22143;-56
2021/11/24 08:57:06;;;;;;;26.77;18.45;;;;;;;6.21;78.11;143786.91;1837707;77;28049;-55
2021/11/24 08:59:41;;;;;;;36.35;22.82;;;;;;;6.42;77.86;143838.14;1834979;77;22121;-57
2021/11/24 09:02:36;;;;;;;31.87;20.27;;;;;;;6.54;77.54;143868.16;1841691;78;22204;-55
2021/11/24 09:05:13;;;;;;;27.17;16.93;;;;;;;6.52;77.41;143863.14;1853384;77;22123;-55
2021/11/24 09:07:50;;;;;;;27.75;17.52;;;;;;;6.55;77.23;143870.62;1853413;77;22167;-55
2021/11/24 09:10:45;;;;;;;26.75;18.67;;;;;;;6.62;77.28;143886.91;1819307;77;28490;-55
2021/11/24 09:13:21;;;;;;;26.00;16.25;;;;;;;6.77;76.86;143923.13;1811721;77;22200;-55
2021/11/24 09:15:56;;;;;;;24.55;16.35;;;;;;;6.81;76.77;143933.14;1800639;79;22259;-56
2021/11/24 09:18:50;;;;;;;24.98;15.72;;;;;;;6.98;76.59;143975.66;1853288;77;22634;-56
2021/11/24 09:21:25;;;;;;;20.80;13.68;;;;;;;7.12;75.96;144010.70;1834914;77;22140;-55
2021/11/24 09:24:04;;;;;;;20.97;14.15;;;;;;;7.09;74.95;144001.92;1826190;77;22159;-55
2021/11/24 09:27:02;;;;;;;20.97;13.58;;;;;;;6.99;74.70;143978.16;1785645;79;22741;-55
2021/11/24 09:29:35;;;;;;;17.90;11.80;;;;;;;6.89;74.21;143953.14;1817659;77;22251;-55
2021/11/24 09:32:11;;;;;;;21.12;13.15;;;;;;;6.92;74.36;143960.63;1820616;77;22172;-56
2021/11/24 09:34:46;;;;;;;24.85;17.70;;;;;;;7.00;74.08;143980.67;1819401;77;28034;-56
2021/11/24 09:37:40;;;;;;;22.37;14.38;;;;;;;7.01;74.23;143983.16;1851469;77;22136;-56
2021/11/24 09:40:35;;;;;;;22.98;13.72;;;;;;;7.05;74.35;143993.19;1817020;77;22229;-56
2021/11/24 09:43:11;;;;;;;20.27;14.07;;;;;;;7.02;74.12;143985.69;1815779;77;22167;-55
2021/11/24 09:45:47;;;;;;;22.02;13.35;;;;;;;6.92;74.39;143960.63;1834934;77;22136;-56
2021/11/24 09:48:23;;;;;;;19.48;12.70;;;;;;;6.90;74.57;143955.67;1834901;77;22577;-55
2021/11/24 09:51:00;;;;;;;22.52;12.13;;;;;;;6.91;74.70;143959.39;1834825;77;22183;-55
2021/11/24 09:53:39;;;;;;;19.62;12.85;;;;;;;6.87;74.91;143948.12;1853519;77;22150;-56
2021/11/24 09:56:17;;;;;;;19.87;12.88;;;;;;;6.90;74.91;143955.67;1853493;77;22180;-55
2021/11/24 09:58:53;;;;;;;15.88;11.05;;;;;;;6.96;75.07;143970.66;1835008;77;22137;-56
2021/11/24 10:01:29;;;;;;;20.50;13.35;;;;;;;6.87;74.69;143948.12;1834664;77;22132;-55
2021/11/24 10:04:09;;;;;;;18.77;11.63;;;;;;;6.67;74.54;143899.41;1827113;77;22660;-56
2021/11/24 10:06:45;;;;;;;18.80;11.15;;;;;;;6.53;75.04;143865.63;1835026;77;22132;-55
2021/11/24 10:09:20;;;;;;;19.57;13.48;;;;;;;6.40;75.56;143833.12;1841194;77;20218;-55
2021/11/24 10:12:14;;;;;;;26.45;15.32;;;;;;;6.33;76.14;143815.62;1834944;77;22128;-56
2021/11/24 10:14:50;;;;;;;20.68;13.53;;;;;;;6.24;76.65;143795.64;1837783;77;28091;-56
2021/11/24 10:17:26;;;;;;;19.57;13.00;;;;;;;6.36;77.02;143823.11;1853512;77;22136;-55
2021/11/24 10:20:09;;;;;;;21.37;14.20;;;;;;;6.43;76.96;143840.63;1834745;77;22642;-55
2021/11/24 10:23:31;;;;;;;18.23;12.68;;;;;;;6.51;77.20;143860.61;1834645;77;22197;-54
2021/11/24 10:26:32;;;;;;;17.45;12.23;;;;;;;6.54;77.14;143868.16;1800711;79;22193;-56
2021/11/24 10:29:12;;;;;;;16.23;11.50;;;;;;;6.50;77.22;143859.38;1835059;77;22136;-56
2021/11/24 10:31:54;;;;;;;18.82;12.13;;;;;;;6.50;76.87;143858.13;1834955;77;22164;-55
2021/11/24 10:34:49;;;;;;;18.20;12.05;;;;;;;6.47;77.13;143850.64;1835022;77;22144;-55
2021/11/24 10:37:44;;;;;;;21.80;13.00;;;;;;;6.40;77.14;143833.12;1829368;77;22246;-55
2021/11/24 10:40:42;;;;;;;19.00;12.53;;;;;;;6.38;77.54;143829.36;1834696;77;22132;-55
2021/11/24 10:43:18;;;;;;;16.62;11.60;;;;;;;6.36;77.71;143823.11;1853620;77;22593;-56
2021/11/24 10:45:56;;;;;;;18.67;12.05;;;;;;;6.39;77.80;143830.66;1834848;77;22611;-54
2021/11/24 10:49:04;;;;;;;18.00;11.33;;;;;;;6.37;78.02;143825.64;1835070;77;22151;-56
2021/11/24 10:51:42;;;;;;;19.07;11.85;;;;;;;6.27;78.41;143801.89;1834944;77;22551;-55
2021/11/24 10:54:19;;;;;;;17.20;12.00;;;;;;;6.29;78.75;143808.14;1834916;77;22165;-56
2021/11/24 10:57:07;;;;;;;18.07;12.68;;;;;;;6.24;78.61;143795.64;1819731;77;38328;-55
2021/11/24 10:59:44;;;;;;;18.62;12.63;;;;;;;6.32;78.64;143814.37;1835061;77;22179;-56
2021/11/24 11:02:46;;;;;;;20.10;14.10;;;;;;;6.38;78.57;143828.13;1853573;77;22562;-55
2021/11/24 11:05:45;;;;;;;20.48;13.58;;;;;;;6.36;78.43;143824.41;1834752;77;22136;-55
2021/11/24 11:08:57;;;;;;;19.42;12.82;;;;;;;6.38;78.23;143829.36;1834155;77;22168;-55
2021/11/24 11:11:45;;;;;;;19.90;12.43;;;;;;;6.28;78.24;143804.37;1853578;77;22211;-54
2021/11/24 11:14:25;;;;;;;21.57;13.55;;;;;;;6.24;78.29;143795.64;1817026;77;22636;-56
2021/11/24 11:17:00;;;;;;;21.60;13.50;;;;;;;6.15;78.52;143771.89;1853512;77;22546;-55
2021/11/24 11:19:56;;;;;;;18.15;11.88;;;;;;;6.11;78.93;143763.16;1834757;77;22124;-55
2021/11/24 11:22:31;;;;;;;18.55;13.40;;;;;;;6.22;78.99;143789.39;1834957;77;22578;-56
2021/11/24 11:25:07;;;;;;;22.60;12.63;;;;;;;6.24;78.85;143795.64;1800684;79;22168;-55
2021/11/24 11:28:02;;;;;;;19.85;13.78;;;;;;;6.32;78.86;143813.16;1853563;77;22128;-56
2021/11/24 11:31:01;;;;;;;23.50;13.60;;;;;;;6.30;78.65;143809.38;1834949;77;22230;-54
2021/11/24 11:33:42;;;;;;;21.07;13.48;;;;;;;6.29;78.63;143806.89;1834797;77;22590;-55
2021/11/24 11:36:17;;;;;;;18.60;13.35;;;;;;;6.30;78.61;143810.63;1834810;77;22587;-56
2021/11/24 11:38:56;;;;;;;21.17;15.70;;;;;;;6.29;78.68;143808.14;1837844;77;28003;-56
2021/11/24 11:41:35;;;;;;;19.98;13.72;;;;;;;6.33;78.72;143816.88;1853448;77;22159;-57
2021/11/24 11:44:29;;;;;;;19.90;13.95;;;;;;;6.34;78.38;143819.39;1834895;77;22157;-56
2021/11/24 11:47:04;;;;;;;18.95;13.40;;;;;;;6.33;78.32;143815.62;1853615;77;22135;-55
2021/11/24 11:49:39;;;;;;;20.40;13.78;;;;;;;6.33;78.09;143816.88;1834886;77;22136;-55
2021/11/24 11:52:14;;;;;;;19.07;13.88;;;;;;;6.28;78.00;143805.66;1819386;77;27955;-55
2021/11/24 11:54:50;;;;;;;18.05;12.68;;;;;;;6.28;78.23;143805.66;1835005;77;22129;-55
2021/11/24 11:57:25;;;;;;;19.67;13.35;;;;;;;6.18;78.22;143779.38;1819241;77;27996;-55
2021/11/24 12:00:08;;;;;;;21.73;13.30;;;;;;;6.17;78.66;143778.13;1834180;77;22183;-55
2021/11/24 12:03:08;;;;;;;18.65;12.53;;;;;;;6.22;78.76;143790.63;1848181;77;22208;-55
2021/11/24 12:06:20;;;;;;;21.48;13.88;;;;;;;6.17;78.47;143776.89;1834841;77;22164;-55
2021/11/24 12:09:11;;;;;;;22.07;14.60;;;;;;;6.08;78.44;143755.62;1853498;77;22139;-55
2021/11/24 12:12:09;;;;;;;23.75;14.50;;;;;;;5.92;78.61;143716.86;1834952;77;22274;-54
2021/11/24 12:14:49;;;;;;;21.60;14.53;;;;;;;5.81;78.80;143690.62;1834979;77;22128;-56
2021/11/24 12:17:48;;;;;;;22.87;15.93;;;;;;;5.72;79.05;143668.13;1834843;77;22191;-56
2021/11/24 12:20:53;;;;;;;24.50;16.30;;;;;;;5.61;79.32;143640.66;1834055;77;22132;-55
2021/11/24 12:23:48;;;;;;;25.25;15.35;;;;;;;5.48;79.58;143609.44;1853488;77;22174;-55
2021/11/24 12:26:55;;;;;;;26.82;16.60;;;;;;;5.31;80.03;143568.20;1853346;77;22160;-56
2021/11/24 12:29:50;;;;;;;25.65;16.62;;;;;;;5.26;80.42;143555.72;1834935;77;22181;-55
2021/11/24 12:32:44;;;;;;;28.62;16.55;;;;;;;5.27;80.82;143558.25;1834927;77;22137;-55